Time;durP1;ratioP1;P1;durP2;ratioP2;P2;SDS_P1;SDS_P2;PMS_P1;PMS_P2;Temp;Humidity;BMP_temperature;BMP_pressure;BME280_temperature;BME280_humidity;BME280_pressure;Samples;Min_cycle;Max_cycle;Signal;HPM_P1;HPM_P2
2024/03/08 00:00:59;;;;;;;46.33;25.52;;;;;;;2.83;100.00;92653.78;2113619;28;20019;-82
2024/03/08 00:02:00;;;;;;;46.15;25.25;;;;;;;2.73;100.00;92655.31;2095828;28;20077;-81
2024/03/08 00:03:02;;;;;;;47.67;25.48;;;;;;;2.83;100.00;92657.19;2099888;28;20029;-83
2024/03/08 00:04:03;;;;;;;45.30;24.40;;;;;;;2.85;100.00;92656.78;2107562;28;20039;-82
2024/03/08 00:05:05;;;;;;;47.92;24.63;;;;;;;2.85;100.00;92654.16;2098584;28;20032;-82
2024/03/08 00:06:07;;;;;;;47.85;24.70;;;;;;;2.77;100.00;92658.69;2098665;28;20024;-81
2024/03/08 00:07:08;;;;;;;46.40;25.17;;;;;;;2.70;100.00;92659.44;2111214;27;20042;-81
2024/03/08 00:08:09;;;;;;;43.15;23.90;;;;;;;2.74;100.00;92654.16;2123945;27;20552;-82
2024/03/08 00:09:10;;;;;;;46.47;25.05;;;;;;;2.70;100.00;92648.13;2115441;28;20027;-82
2024/03/08 00:10:13;;;;;;;43.92;24.13;;;;;;;2.59;100.00;92650.00;2115446;28;20027;-80
2024/03/08 00:11:14;;;;;;;45.95;23.85;;;;;;;2.68;100.00;92648.53;2123839;27;20051;-81
2024/03/08 00:12:15;;;;;;;47.95;25.15;;;;;;;2.75;100.00;92647.75;2122656;27;20027;-82
2024/03/08 00:13:16;;;;;;;49.17;25.85;;;;;;;2.68;100.00;92643.25;2116053;28;20065;-81
2024/03/08 00:14:17;;;;;;;46.08;25.42;;;;;;;2.73;100.00;92642.13;2106774;28;20028;-82
2024/03/08 00:15:18;;;;;;;45.80;25.13;;;;;;;2.71;100.00;92649.63;2090408;28;20370;-82
2024/03/08 00:16:19;;;;;;;44.60;25.52;;;;;;;2.48;100.00;92644.72;2104320;28;20503;-81
2024/03/08 00:17:23;;;;;;;44.47;23.70;;;;;;;2.43;100.00;92647.75;2123695;27;20023;-81
2024/03/08 00:18:24;;;;;;;49.50;24.75;;;;;;;2.37;100.00;92643.94;2115341;28;20374;-82
2024/03/08 00:19:25;;;;;;;41.65;23.52;;;;;;;2.32;100.00;92649.59;2102456;28;20028;-82
2024/03/08 00:20:26;;;;;;;46.90;25.20;;;;;;;2.32;100.00;92647.72;2106924;28;20020;-82
2024/03/08 00:21:27;;;;;;;42.60;23.27;;;;;;;2.27;100.00;92648.09;2098584;28;20074;-81
2024/03/08 00:22:30;;;;;;;47.17;25.08;;;;;;;2.19;100.00;92649.94;2103522;28;20028;-81
2024/03/08 00:23:33;;;;;;;43.78;23.65;;;;;;;2.02;100.00;92642.78;2112391;28;20576;-80
2024/03/08 00:24:34;;;;;;;40.60;23.25;;;;;;;2.10;100.00;92643.53;2118678;27;20535;-82
2024/03/08 00:25:35;;;;;;;42.38;23.48;;;;;;;2.12;100.00;92642.03;2122495;27;20023;-81
2024/03/08 00:26:38;;;;;;;46.38;23.25;;;;;;;2.11;100.00;92639.75;2104576;28;20024;-80
2024/03/08 00:27:39;;;;;;;45.70;24.40;;;;;;;2.10;100.00;92640.91;2095282;28;20033;-82
2024/03/08 00:28:40;;;;;;;42.42;22.65;;;;;;;2.12;100.00;92643.94;2107452;27;20043;-81
2024/03/08 00:29:41;;;;;;;48.55;24.05;;;;;;;2.14;100.00;92639.03;2111237;28;20546;-81
2024/03/08 00:30:42;;;;;;;41.80;22.08;;;;;;;2.21;100.00;92637.16;2098413;28;20404;-82
2024/03/08 00:31:43;;;;;;;44.45;22.55;;;;;;;2.13;100.00;92634.88;2101016;28;20032;-82
2024/03/08 00:32:45;;;;;;;42.65;23.10;;;;;;;2.24;100.00;92635.69;2111294;28;20019;-81
2024/03/08 00:33:46;;;;;;;42.60;23.00;;;;;;;2.26;100.00;92638.69;2107430;28;20436;-80
2024/03/08 00:34:47;;;;;;;44.05;23.58;;;;;;;2.26;100.00;92636.78;2096948;28;20020;-82
2024/03/08 00:35:48;;;;;;;43.95;23.48;;;;;;;2.43;100.00;92629.28;2106851;28;20024;-81
2024/03/08 00:36:50;;;;;;;45.88;23.23;;;;;;;2.42;100.00;92627.78;2106869;28;20028;-83
2024/03/08 00:37:51;;;;;;;41.90;22.23;;;;;;;2.47;100.00;92638.72;2106806;28;20031;-80
2024/03/08 00:38:52;;;;;;;41.72;22.25;;;;;;;2.42;100.00;92625.91;2115212;28;20099;-84
2024/03/08 00:39:53;;;;;;;45.80;24.08;;;;;;;2.41;100.00;92628.88;2115197;28;20156;-80
2024/03/08 00:40:55;;;;;;;44.72;23.10;;;;;;;2.48;100.00;92634.19;2115169;28;20459;-81
2024/03/08 00:41:56;;;;;;;40.53;22.48;;;;;;;2.51;100.00;92628.91;2114919;28;20031;-82
2024/03/08 00:43:05;;;;;;;46.90;24.13;;;;;;;2.52;100.00;92622.50;2114980;28;20026;-82
2024/03/08 00:44:06;;;;;;;46.97;23.50;;;;;;;2.64;100.00;92621.38;2111935;27;20033;-81
2024/03/08 00:45:08;;;;;;;47.85;23.08;;;;;;;2.71;100.00;92628.53;2106518;28;20039;-81
2024/03/08 00:46:09;;;;;;;41.97;22.27;;;;;;;2.73;100.00;92621.75;2106857;28;20051;-80
2024/03/08 00:47:10;;;;;;;47.83;24.88;;;;;;;2.65;100.00;92622.13;2115129;28;20050;-82
2024/03/08 00:48:11;;;;;;;47.38;24.02;;;;;;;2.73;100.00;92623.63;2098449;28;20507;-81
2024/03/08 00:49:12;;;;;;;45.63;24.17;;;;;;;2.72;100.00;92617.63;2090026;28;20029;-81
2024/03/08 00:50:13;;;;;;;45.63;24.98;;;;;;;2.73;100.00;92619.13;2104801;28;20039;-81
2024/03/08 00:51:15;;;;;;;45.72;23.55;;;;;;;2.74;100.00;92620.63;2106612;28;20024;-80
2024/03/08 00:52:18;;;;;;;43.25;23.08;;;;;;;2.78;100.00;92623.25;2105589;28;20030;-81
2024/03/08 00:53:19;;;;;;;43.20;23.55;;;;;;;2.87;100.00;92620.97;2103448;28;20450;-83
2024/03/08 00:54:20;;;;;;;52.03;25.30;;;;;;;2.78;100.00;92623.25;2090095;28;20079;-80
2024/03/08 00:55:21;;;;;;;44.78;23.02;;;;;;;2.69;100.00;92621.00;2098128;28;20028;-82
2024/03/08 00:56:22;;;;;;;41.17;22.30;;;;;;;2.76;100.00;92615.69;2114840;28;20031;-81
2024/03/08 00:57:23;;;;;;;49.53;24.77;;;;;;;2.64;100.00;92615.34;2100621;28;20044;-81
2024/03/08 00:58:24;;;;;;;48.63;23.40;;;;;;;2.68;100.00;92616.09;2100460;28;20024;-81
2024/03/08 00:59:25;;;;;;;54.35;25.42;;;;;;;2.69;100.00;92609.69;2106641;28;20024;-81
2024/03/08 01:00:25;;;;;;;44.47;23.45;;;;;;;2.90;100.00;92616.84;2112191;28;20016;-83
2024/03/08 01:01:28;;;;;;;49.17;24.27;;;;;;;2.75;100.00;92611.56;2110793;28;20031;-82
2024/03/08 01:02:29;;;;;;;49.45;25.55;;;;;;;2.60;100.00;92611.97;2112591;28;20019;-81
2024/03/08 01:03:34;;;;;;;42.72;24.33;;;;;;;2.63;100.00;92611.19;2112500;28;20047;-80
2024/03/08 01:04:35;;;;;;;46.83;24.08;;;;;;;2.72;100.00;92614.97;2112775;27;20421;-81
2024/03/08 01:05:36;;;;;;;47.58;24.88;;;;;;;2.85;100.00;92607.41;2089889;28;20072;-81
2024/03/08 01:06:37;;;;;;;43.90;23.20;;;;;;;3.02;100.00;92608.50;2089938;28;20091;-82
2024/03/08 01:07:39;;;;;;;45.22;24.63;;;;;;;3.02;100.00;92605.88;2098223;28;20024;-83
2024/03/08 01:08:42;;;;;;;50.63;25.55;;;;;;;2.89;100.00;92600.22;2098955;28;20047;-84
2024/03/08 01:09:43;;;;;;;48.95;24.20;;;;;;;2.97;100.00;92601.72;2123525;27;20038;-81
2024/03/08 01:10:44;;;;;;;44.92;24.45;;;;;;;2.86;100.00;92601.00;2114824;28;20407;-82
2024/03/08 01:11:44;;;;;;;44.72;23.90;;;;;;;2.75;100.00;92602.91;2123340;27;20035;-81
2024/03/08 01:12:45;;;;;;;42.70;22.98;;;;;;;2.85;100.00;92604.00;2123388;27;20463;-81
2024/03/08 01:13:47;;;;;;;42.05;22.75;;;;;;;2.79;100.00;92598.38;2123345;27;20079;-83
2024/03/08 01:14:48;;;;;;;47.17;23.60;;;;;;;2.69;100.00;92597.25;2106517;28;20038;-81
2024/03/08 01:15:49;;;;;;;47.42;24.10;;;;;;;2.65;100.00;92595.75;2105257;28;20123;-81
2024/03/08 01:16:50;;;;;;;44.75;24.17;;;;;;;2.59;100.00;92597.25;2105355;28;20101;-80
2024/03/08 01:17:51;;;;;;;45.47;24.35;;;;;;;2.65;100.00;92599.13;2092143;28;20504;-81
2024/03/08 01:18:52;;;;;;;46.72;24.25;;;;;;;2.69;100.00;92593.88;2035458;28;20039;-82
2024/03/08 01:19:53;;;;;;;45.60;23.88;;;;;;;2.68;100.00;92593.13;2038217;27;20027;-80
2024/03/08 01:20:54;;;;;;;44.60;23.75;;;;;;;2.66;100.00;92589.34;2037023;28;20043;-81
2024/03/08 01:21:56;;;;;;;44.25;23.30;;;;;;;2.77;100.00;92590.09;2035004;28;23103;-82
2024/03/08 01:22:57;;;;;;;42.92;22.63;;;;;;;2.71;100.00;92589.69;2049438;28;20029;-81
2024/03/08 01:23:58;;;;;;;45.42;24.45;;;;;;;2.88;100.00;92582.16;2059986;28;20113;-82
2024/03/08 01:24:59;;;;;;;43.97;24.08;;;;;;;2.77;100.00;92577.66;2072820;27;20070;-82
2024/03/08 01:26:02;;;;;;;44.28;23.52;;;;;;;2.66;100.00;92576.13;2067331;28;20498;-80
2024/03/08 01:27:03;;;;;;;46.03;23.10;;;;;;;2.92;100.00;92583.66;2077768;28;20159;-81
2024/03/08 01:28:04;;;;;;;44.25;23.80;;;;;;;3.07;100.00;92584.34;2077432;28;20465;-82
2024/03/08 01:29:05;;;;;;;42.80;23.33;;;;;;;2.71;100.00;92581.03;2083525;28;20059;-81
2024/03/08 01:30:09;;;;;;;43.33;23.00;;;;;;;2.53;100.00;92573.88;2090252;28;20028;-81
2024/03/08 01:31:10;;;;;;;44.92;22.80;;;;;;;2.72;100.00;92569.34;2085160;28;20094;-81
2024/03/08 01:32:14;;;;;;;40.70;22.48;;;;;;;2.69;100.00;92572.75;2095002;28;20024;-81
2024/03/08 01:33:15;;;;;;;40.80;22.45;;;;;;;2.75;100.00;92566.69;2116994;27;20066;-81
2024/03/08 01:34:17;;;;;;;41.17;23.15;;;;;;;2.85;100.00;92567.81;2123168;27;20023;-82
2024/03/08 01:35:18;;;;;;;44.05;22.45;;;;;;;2.92;100.00;92564.41;2118328;27;20077;-84
2024/03/08 01:36:21;;;;;;;38.92;21.40;;;;;;;2.98;100.00;92565.53;2106204;28;20024;-81
2024/03/08 01:37:22;;;;;;;38.45;21.63;;;;;;;3.00;100.00;92565.91;2099575;28;20040;-82
2024/03/08 01:38:23;;;;;;;39.85;21.27;;;;;;;3.06;100.00;92567.03;2120693;27;20417;-81
2024/03/08 01:39:24;;;;;;;41.00;21.63;;;;;;;2.92;100.00;92567.06;2116852;27;20524;-81
2024/03/08 01:40:25;;;;;;;36.95;20.52;;;;;;;2.81;100.00;92567.09;2114739;28;20030;-82
2024/03/08 01:41:29;;;;;;;38.83;22.10;;;;;;;2.90;100.00;92566.69;2106384;28;20028;-82
2024/03/08 01:42:30;;;;;;;36.92;20.33;;;;;;;3.14;100.00;92559.84;2114153;27;20034;-81
2024/03/08 01:43:31;;;;;;;39.97;21.70;;;;;;;3.17;100.00;92559.84;2111116;28;20077;-81
2024/03/08 01:44:32;;;;;;;37.38;20.40;;;;;;;2.89;100.00;92557.25;2097724;28;20526;-81
2024/03/08 01:45:34;;;;;;;41.60;21.50;;;;;;;2.92;100.00;92546.69;2113361;27;20473;-83
2024/03/08 01:46:35;;;;;;;40.53;21.83;;;;;;;3.00;100.00;92556.09;2123484;27;20114;-85
2024/03/08 01:47:37;;;;;;;37.28;21.05;;;;;;;2.99;100.00;92546.69;2123303;27;20027;-82
2024/03/08 01:48:40;;;;;;;38.13;20.33;;;;;;;3.00;100.00;92550.81;2117961;27;20408;-81
2024/03/08 01:49:41;;;;;;;38.42;20.08;;;;;;;2.86;100.00;92547.47;2099890;28;20113;-81
2024/03/08 01:50:43;;;;;;;40.60;21.65;;;;;;;3.01;100.00;92547.03;2100857;28;20028;-82
2024/03/08 01:51:45;;;;;;;40.05;20.88;;;;;;;2.90;100.00;92541.06;2099876;28;20409;-81
2024/03/08 01:52:46;;;;;;;40.70;21.40;;;;;;;2.94;100.00;92544.44;2065808;27;20874;-81
2024/03/08 01:53:48;;;;;;;35.53;20.58;;;;;;;2.92;100.00;92541.41;2031320;28;20151;-81
2024/03/08 01:54:49;;;;;;;37.90;21.00;;;;;;;3.02;100.00;92545.91;2037757;28;20107;-81
2024/03/08 01:55:53;;;;;;;38.08;21.60;;;;;;;3.10;100.00;92548.53;2042630;28;20062;-81
2024/03/08 01:56:54;;;;;;;40.47;20.23;;;;;;;3.03;100.00;92534.22;2045732;28;20029;-82
2024/03/08 01:57:55;;;;;;;38.60;20.30;;;;;;;2.88;100.00;92538.03;2036013;28;20073;-80
2024/03/08 01:58:57;;;;;;;37.30;20.58;;;;;;;2.88;100.00;92532.75;2042403;28;20117;-80
2024/03/08 01:59:58;;;;;;;35.47;19.98;;;;;;;2.88;100.00;92538.03;2058374;28;20024;-80
2024/03/08 02:00:59;;;;;;;36.40;20.23;;;;;;;2.76;100.00;92533.16;2059934;28;20039;-81
2024/03/08 02:02:02;;;;;;;38.63;19.77;;;;;;;2.99;100.00;92536.13;2064614;28;20066;-80
2024/03/08 02:03:04;;;;;;;39.13;20.80;;;;;;;3.02;100.00;92535.34;2077679;28;20398;-81
2024/03/08 02:04:07;;;;;;;36.40;19.70;;;;;;;2.84;100.00;92528.63;1966889;28;20051;-81
2024/03/08 02:05:09;;;;;;;37.45;20.73;;;;;;;2.93;100.00;92532.34;2059552;28;20737;-82
2024/03/08 02:06:14;;;;;;;35.30;20.23;;;;;;;2.91;100.00;92529.34;1990070;28;23672;-82
2024/03/08 02:07:15;;;;;;;38.10;20.10;;;;;;;3.03;100.00;92525.56;1975215;28;20031;-80
2024/03/08 02:08:16;;;;;;;41.63;21.90;;;;;;;3.06;100.00;92524.78;2002156;28;20032;-81
2024/03/08 02:09:17;;;;;;;36.20;20.35;;;;;;;3.28;100.00;92518.28;1975165;28;20038;-82
2024/03/08 02:10:18;;;;;;;39.05;20.65;;;;;;;3.07;100.00;92520.25;2019877;28;20758;-81
2024/03/08 02:11:20;;;;;;;36.70;19.52;;;;;;;3.17;100.00;92514.19;2077159;28;20468;-81
2024/03/08 02:12:21;;;;;;;33.90;19.10;;;;;;;2.94;100.00;92523.31;2084055;28;20083;-81
2024/03/08 02:13:22;;;;;;;37.40;20.30;;;;;;;2.94;100.00;92523.31;2096095;28;20054;-82
2024/03/08 02:14:23;;;;;;;35.05;19.73;;;;;;;2.82;100.00;92523.72;2106025;28;20036;-81
2024/03/08 02:15:25;;;;;;;36.90;20.80;;;;;;;2.79;100.00;92516.56;2109494;27;20930;-80
2024/03/08 02:16:27;;;;;;;35.97;19.83;;;;;;;2.87;100.00;92522.59;2092383;28;20417;-81
2024/03/08 02:17:30;;;;;;;35.85;20.10;;;;;;;2.72;100.00;92517.34;2082534;28;20535;-82
2024/03/08 02:18:34;;;;;;;36.42;20.13;;;;;;;2.41;100.00;92521.50;2080183;28;20116;-81
2024/03/08 02:19:36;;;;;;;40.55;20.25;;;;;;;2.63;100.00;92519.59;2080856;28;20142;-81
2024/03/08 02:20:37;;;;;;;36.13;19.80;;;;;;;2.66;100.00;92516.22;2074476;28;20024;-81
2024/03/08 02:21:38;;;;;;;36.97;20.02;;;;;;;2.59;100.00;92513.59;2067075;27;20240;-81
2024/03/08 02:22:39;;;;;;;39.60;19.73;;;;;;;2.47;100.00;92512.09;2079587;28;20050;-81
2024/03/08 02:23:40;;;;;;;37.10;20.00;;;;;;;2.59;100.00;92510.97;1947652;28;21137;-82
2024/03/08 02:24:41;;;;;;;36.33;20.23;;;;;;;2.67;100.00;92520.34;1954898;28;20118;-81
2024/03/08 02:27:04;;;;;;;;;;;;;;;1.43;100.00;92511.28;1889883;27;24074;-82
2024/03/08 02:28:05;;;;;;;33.78;18.27;;;;;;;1.66;100.00;92505.66;1830671;27;22911;-82
2024/03/08 02:29:06;;;;;;;37.70;19.63;;;;;;;1.66;100.00;92510.94;1852906;28;20036;-81
2024/03/08 02:30:09;;;;;;;39.72;20.77;;;;;;;1.41;100.00;92513.53;1758655;28;20026;-84
2024/03/08 02:31:10;;;;;;;38.05;19.65;;;;;;;1.75;100.00;92510.56;1787371;28;20033;-81
2024/03/08 02:32:11;;;;;;;37.38;20.48;;;;;;;1.71;100.00;92504.53;1806739;28;20036;-82
2024/03/08 02:33:19;;;;;;;35.63;19.50;;;;;;;1.60;100.00;92514.31;1829531;28;21651;-84
2024/03/08 02:34:20;;;;;;;40.08;20.25;;;;;;;1.63;100.00;92511.72;1836964;28;23196;-82
2024/03/08 02:35:21;;;;;;;38.80;20.55;;;;;;;1.72;100.00;92503.44;1877049;28;20258;-84
2024/03/08 02:36:23;;;;;;;36.25;20.35;;;;;;;1.43;100.00;92506.00;1904058;28;22763;-84
2024/03/08 02:37:24;;;;;;;34.63;18.70;;;;;;;1.56;100.00;92500.41;1925390;28;20231;-83
2024/03/08 02:38:25;;;;;;;36.75;20.60;;;;;;;1.49;100.00;92499.25;1966051;28;23229;-81
2024/03/08 02:39:27;;;;;;;37.95;20.00;;;;;;;1.57;100.00;92494.75;2065943;28;20024;-86
2024/03/08 02:40:28;;;;;;;37.17;20.27;;;;;;;1.73;100.00;92503.06;2076433;28;20032;-85
2024/03/08 02:41:29;;;;;;;39.83;21.35;;;;;;;1.65;100.00;92498.16;2044912;28;20032;-86
2024/03/08 02:42:30;;;;;;;39.30;20.38;;;;;;;1.75;100.00;92492.88;2018046;28;20601;-85
2024/03/08 02:43:31;;;;;;;37.45;20.90;;;;;;;1.70;100.00;92489.88;2030064;28;20675;-80
2024/03/08 02:44:33;;;;;;;39.13;20.55;;;;;;;1.66;100.00;92492.50;2046608;28;20025;-80
2024/03/08 02:45:34;;;;;;;35.70;19.60;;;;;;;1.72;100.00;92490.28;2052866;28;20096;-85
2024/03/08 02:46:36;;;;;;;39.83;21.67;;;;;;;1.56;100.00;92489.88;2041568;28;22322;-83
2024/03/08 02:47:37;;;;;;;37.40;21.23;;;;;;;1.59;100.00;92499.66;2068928;28;20035;-84
2024/03/08 02:48:39;;;;;;;37.22;19.15;;;;;;;1.75;100.00;92481.59;2080809;28;20118;-83
2024/03/08 02:49:40;;;;;;;36.17;20.15;;;;;;;1.68;100.00;92487.63;2088460;27;20039;-86
2024/03/08 02:50:44;;;;;;;40.92;19.67;;;;;;;1.59;100.00;92487.25;2086405;28;20159;-84
2024/03/08 02:51:46;;;;;;;36.08;20.25;;;;;;;1.65;100.00;92484.97;2085381;28;20024;-86
2024/03/08 02:52:47;;;;;;;34.83;19.65;;;;;;;1.66;100.00;92487.22;2104350;28;20472;-85
2024/03/08 02:53:48;;;;;;;39.35;19.77;;;;;;;1.70;100.00;92487.25;2096283;28;20021;-85
2024/03/08 02:54:49;;;;;;;38.47;19.58;;;;;;;1.79;100.00;92489.50;2104596;28;20024;-85
2024/03/08 02:55:50;;;;;;;37.40;19.17;;;;;;;1.79;100.00;92490.25;2096214;28;20466;-82
2024/03/08 02:56:51;;;;;;;37.55;20.45;;;;;;;1.89;100.00;92489.53;2104369;28;20040;-86
2024/03/08 02:57:54;;;;;;;37.85;19.38;;;;;;;1.82;100.00;92486.88;2112601;28;20019;-85
2024/03/08 02:58:55;;;;;;;34.10;18.65;;;;;;;1.81;100.00;92479.38;2111255;28;20713;-86
2024/03/08 02:59:56;;;;;;;35.25;19.42;;;;;;;1.74;100.00;92478.22;2104504;28;20032;-85
2024/03/08 03:00:57;;;;;;;37.00;19.38;;;;;;;1.69;100.00;92483.09;2110687;28;20024;-84
2024/03/08 03:01:58;;;;;;;35.70;18.83;;;;;;;1.70;100.00;92477.44;2112693;28;20098;-84
2024/03/08 03:02:59;;;;;;;34.95;19.75;;;;;;;1.70;100.00;92474.06;2112830;28;20073;-86
2024/03/08 03:04:00;;;;;;;38.88;20.45;;;;;;;1.72;100.00;92472.56;2104415;28;20028;-87
2024/03/08 03:05:05;;;;;;;38.00;19.05;;;;;;;1.74;100.00;92477.47;2104476;28;20024;-83
2024/03/08 03:06:07;;;;;;;34.92;19.20;;;;;;;1.42;100.00;92472.91;2112754;28;20024;-84
2024/03/08 03:07:08;;;;;;;37.67;20.20;;;;;;;1.47;100.00;92474.41;2112627;28;20027;-86
2024/03/08 03:08:09;;;;;;;37.97;19.85;;;;;;;1.52;100.00;92474.81;2104319;28;20020;-84
2024/03/08 03:09:10;;;;;;;38.55;19.40;;;;;;;1.71;100.00;92472.94;2109232;27;20024;-83
2024/03/08 03:10:12;;;;;;;35.55;19.83;;;;;;;1.71;100.00;92475.56;2111993;28;20027;-84
2024/03/08 03:11:13;;;;;;;34.33;19.38;;;;;;;1.67;100.00;92469.56;2095676;28;20506;-84
2024/03/08 03:12:18;;;;;;;35.70;20.23;;;;;;;1.81;100.00;92464.31;2088716;28;20159;-86
2024/03/08 03:13:19;;;;;;;34.10;18.70;;;;;;;1.75;100.00;92465.78;2109157;28;20031;-84
2024/03/08 03:14:21;;;;;;;33.65;19.27;;;;;;;1.67;100.00;92466.94;2108793;28;20020;-87
2024/03/08 03:15:22;;;;;;;37.53;20.17;;;;;;;1.67;100.00;92462.41;2112631;28;20496;-84
2024/03/08 03:16:27;;;;;;;32.30;18.38;;;;;;;1.61;100.00;92463.16;2113158;28;20012;-86
2024/03/08 03:17:30;;;;;;;34.10;19.85;;;;;;;1.67;100.00;92467.69;2112383;28;20035;-84
2024/03/08 03:18:32;;;;;;;34.75;19.70;;;;;;;1.61;100.00;92463.91;2095948;28;20025;-87
2024/03/08 03:19:33;;;;;;;36.03;19.63;;;;;;;1.86;100.00;92463.19;2097361;28;20521;-85
2024/03/08 03:20:39;;;;;;;40.22;19.77;;;;;;;1.93;100.00;92463.94;2108455;28;20020;-85
2024/03/08 03:21:43;;;;;;;34.65;18.58;;;;;;;1.80;100.00;92459.38;2112931;28;20114;-87
2024/03/08 03:22:47;;;;;;;33.95;19.95;;;;;;;1.78;100.00;92462.41;2111724;28;20023;-84
2024/03/08 03:23:48;;;;;;;35.15;18.83;;;;;;;1.74;100.00;92459.78;2112635;28;20020;-84
2024/03/08 03:24:51;;;;;;;34.80;19.30;;;;;;;1.86;100.00;92466.56;2096004;28;20029;-84
2024/03/08 03:25:52;;;;;;;31.05;17.08;;;;;;;1.88;100.00;92463.53;2088405;28;20082;-86
2024/03/08 03:26:54;;;;;;;34.15;18.98;;;;;;;1.66;100.00;92457.50;2093762;28;20405;-85
2024/03/08 03:27:58;;;;;;;37.00;19.52;;;;;;;1.88;100.00;92458.28;2096102;28;20032;-84
2024/03/08 03:29:00;;;;;;;30.88;18.02;;;;;;;1.85;100.00;92459.03;2104610;28;20581;-83
2024/03/08 03:30:20;;;;;;;35.53;18.58;;;;;;;1.84;100.00;92453.00;2104390;28;20043;-86
2024/03/08 03:31:23;;;;;;;34.78;19.08;;;;;;;1.82;100.00;92460.53;2106939;28;20063;-83
2024/03/08 03:32:24;;;;;;;32.22;18.80;;;;;;;1.86;100.00;92458.66;2104349;28;20029;-84
2024/03/08 03:33:25;;;;;;;38.60;19.50;;;;;;;1.81;100.00;92455.66;2104067;28;20081;-85
2024/03/08 03:34:26;;;;;;;35.78;19.20;;;;;;;1.84;100.00;92449.59;2104190;28;20028;-85
2024/03/08 03:35:29;;;;;;;33.47;19.20;;;;;;;1.79;100.00;92455.25;2104200;28;20473;-86
2024/03/08 03:36:30;;;;;;;39.30;20.83;;;;;;;1.76;100.00;92459.41;2104188;28;20032;-83
2024/03/08 03:37:33;;;;;;;34.42;18.88;;;;;;;1.80;100.00;92457.53;2095622;28;20417;-83
2024/03/08 03:38:34;;;;;;;32.80;18.80;;;;;;;1.82;100.00;92452.63;2090286;28;20028;-85
2024/03/08 03:39:48;;;;;;;32.60;19.42;;;;;;;1.83;100.00;92448.09;2090559;28;20109;-85
2024/03/08 03:40:52;;;;;;;34.25;19.08;;;;;;;1.94;100.00;92448.88;2101807;28;20021;-86
2024/03/08 03:41:53;;;;;;;35.85;19.80;;;;;;;1.75;100.00;92456.00;2103287;28;20487;-86
2024/03/08 03:42:54;;;;;;;38.05;19.90;;;;;;;1.93;100.00;92448.13;2103781;28;20025;-84
2024/03/08 03:43:55;;;;;;;35.15;19.73;;;;;;;1.79;100.00;92450.00;2098456;28;20025;-86
2024/03/08 03:44:56;;;;;;;33.42;19.00;;;;;;;1.85;100.00;92454.53;2098429;28;20024;-85
2024/03/08 03:45:58;;;;;;;32.65;19.27;;;;;;;1.81;100.00;92445.88;2110134;28;20385;-84
2024/03/08 03:46:59;;;;;;;35.75;19.23;;;;;;;2.06;100.00;92445.84;2098457;28;20024;-85
2024/03/08 03:48:06;;;;;;;37.78;20.27;;;;;;;2.08;100.00;92448.09;2098536;28;20020;-84
2024/03/08 03:49:07;;;;;;;35.90;19.48;;;;;;;1.94;100.00;92444.34;2091083;28;20086;-85
2024/03/08 03:50:09;;;;;;;38.20;18.77;;;;;;;2.09;100.00;92439.06;2086310;28;20032;-84
2024/03/08 03:51:10;;;;;;;37.55;19.67;;;;;;;1.94;100.00;92446.25;2096649;28;20051;-85
2024/03/08 03:52:12;;;;;;;30.38;18.10;;;;;;;1.88;100.00;92447.72;2092704;28;20025;-85
2024/03/08 03:53:13;;;;;;;34.97;18.00;;;;;;;1.89;100.00;92444.72;2098588;28;20023;-86
2024/03/08 03:54:14;;;;;;;36.40;20.17;;;;;;;1.62;100.00;92441.69;2098442;28;20028;-84
2024/03/08 03:55:15;;;;;;;34.15;19.60;;;;;;;1.62;100.00;92444.31;2082086;28;20031;-83
2024/03/08 03:56:16;;;;;;;35.63;20.08;;;;;;;1.78;100.00;92441.34;2087135;28;20025;-85
2024/03/08 03:57:18;;;;;;;35.28;18.67;;;;;;;1.88;100.00;92432.66;2090143;28;20032;-84
2024/03/08 03:58:27;;;;;;;35.42;19.63;;;;;;;1.88;100.00;92434.56;2090227;28;20444;-84
2024/03/08 03:59:29;;;;;;;31.02;18.13;;;;;;;1.79;100.00;92436.81;2091317;28;20055;-85
2024/03/08 04:00:29;;;;;;;33.58;19.08;;;;;;;1.71;100.00;92436.84;2082249;28;20093;-84
2024/03/08 04:01:30;;;;;;;35.22;19.00;;;;;;;1.57;100.00;92434.16;2081843;28;20144;-86
2024/03/08 04:02:31;;;;;;;35.75;19.35;;;;;;;1.60;100.00;92430.03;2090273;28;20033;-89
2024/03/08 04:03:32;;;;;;;55.70;36.40;;;;;;;1.52;100.00;92426.66;2090167;28;20025;-85
2024/03/08 04:04:33;;;;;;;39.97;24.55;;;;;;;1.55;100.00;92430.41;2090116;28;20482;-86
2024/03/08 04:05:34;;;;;;;31.33;18.70;;;;;;;1.71;100.00;92428.94;2090034;28;20661;-88
2024/03/08 04:06:35;;;;;;;33.42;18.92;;;;;;;1.73;100.00;92434.56;2089811;28;20028;-84
2024/03/08 04:07:38;;;;;;;36.53;19.15;;;;;;;1.75;100.00;92431.53;2094162;28;20158;-85
2024/03/08 04:08:39;;;;;;;30.70;18.05;;;;;;;1.66;100.00;92424.00;2098937;28;20025;-84
2024/03/08 04:09:40;;;;;;;32.50;19.00;;;;;;;1.86;100.00;92429.66;2098407;28;20024;-86
2024/03/08 04:10:44;;;;;;;33.55;19.38;;;;;;;1.84;100.00;92428.53;2098288;28;20043;-85
2024/03/08 04:11:45;;;;;;;33.95;19.70;;;;;;;1.80;100.00;92430.41;2093926;28;20020;-84
2024/03/08 04:12:47;;;;;;;32.30;18.65;;;;;;;1.94;100.00;92427.78;2099506;28;20039;-85
2024/03/08 04:13:48;;;;;;;34.00;19.15;;;;;;;1.92;100.00;92422.88;2090046;28;20028;-84
2024/03/08 04:14:49;;;;;;;34.78;18.83;;;;;;;1.81;100.00;92424.78;2098085;28;20025;-84
2024/03/08 04:15:50;;;;;;;32.95;19.70;;;;;;;1.90;100.00;92425.16;2106593;28;20042;-85
2024/03/08 04:16:52;;;;;;;33.22;19.75;;;;;;;1.79;100.00;92421.75;2109608;28;20035;-85
2024/03/08 04:17:54;;;;;;;34.97;18.88;;;;;;;1.80;100.00;92422.50;2091148;28;20481;-85
2024/03/08 04:18:55;;;;;;;33.17;18.85;;;;;;;1.89;100.00;92420.25;2094111;28;20024;-84
2024/03/08 04:19:56;;;;;;;33.67;19.60;;;;;;;1.89;100.00;92409.69;2111952;28;20887;-85
2024/03/08 04:20:57;;;;;;;31.92;19.25;;;;;;;1.99;100.00;92419.50;2106836;28;20028;-83
2024/03/08 04:22:00;;;;;;;36.47;19.58;;;;;;;1.94;100.00;92418.00;2091989;28;20024;-84
2024/03/08 04:23:01;;;;;;;33.55;18.73;;;;;;;1.91;100.00;92425.91;2090134;28;20028;-83
2024/03/08 04:24:02;;;;;;;34.42;19.63;;;;;;;1.87;100.00;92415.34;2089975;28;20029;-84
2024/03/08 04:25:03;;;;;;;34.40;19.23;;;;;;;1.73;100.00;92421.38;2098282;28;20365;-86
2024/03/08 04:26:18;;;;;;;35.45;19.50;;;;;;;1.69;100.00;92417.25;2098074;28;20024;-87
2024/03/08 04:27:19;;;;;;;34.75;19.20;;;;;;;1.75;100.00;92415.72;2091608;28;20421;-85
2024/03/08 04:28:20;;;;;;;33.42;19.52;;;;;;;1.50;100.00;92418.38;2090035;28;20033;-87
2024/03/08 04:29:21;;;;;;;31.25;19.10;;;;;;;1.61;100.00;92419.13;2090165;28;20036;-86
2024/03/08 04:30:22;;;;;;;36.30;19.35;;;;;;;1.69;100.00;92420.63;2081891;28;20510;-86
2024/03/08 04:31:24;;;;;;;33.63;18.70;;;;;;;1.76;100.00;92417.25;2081752;28;20052;-86
2024/03/08 04:32:25;;;;;;;33.00;19.85;;;;;;;1.81;100.00;92418.75;2103322;28;20103;-86
2024/03/08 04:33:26;;;;;;;35.70;19.08;;;;;;;1.78;100.00;92420.25;2089858;28;20036;-88
2024/03/08 04:34:28;;;;;;;34.10;18.67;;;;;;;1.69;100.00;92420.63;2089802;28;20099;-84
2024/03/08 04:35:30;;;;;;;32.50;19.08;;;;;;;1.66;100.00;92423.25;2098234;28;20032;-87
2024/03/08 04:36:31;;;;;;;38.42;20.02;;;;;;;1.54;100.00;92415.72;2098180;28;20488;-85
2024/03/08 04:37:32;;;;;;;34.63;19.92;;;;;;;1.38;100.00;92408.97;2106446;28;20069;-84
2024/03/08 04:38:33;;;;;;;29.75;18.02;;;;;;;1.29;100.00;92415.72;2106385;28;20031;-83
2024/03/08 04:39:34;;;;;;;34.97;19.77;;;;;;;1.51;100.00;92419.88;2106409;28;20055;-85
2024/03/08 04:40:35;;;;;;;34.38;19.65;;;;;;;1.49;100.00;92411.59;2106421;28;20483;-87
2024/03/08 04:41:37;;;;;;;34.55;19.83;;;;;;;1.50;100.00;92419.13;2097285;28;20120;-83
2024/03/08 04:42:40;;;;;;;33.13;19.05;;;;;;;1.55;100.00;92417.25;2089858;28;20070;-85
2024/03/08 04:43:42;;;;;;;33.92;19.90;;;;;;;1.61;100.00;92416.50;2082031;28;20035;-86
2024/03/08 04:44:43;;;;;;;31.60;19.52;;;;;;;1.59;100.00;92410.09;2090446;28;20091;-85
2024/03/08 04:45:44;;;;;;;34.15;20.13;;;;;;;1.70;100.00;92413.47;2097836;28;20020;-85